This is the latest recevied weather packets stored in our database for station/object KB8DOA. If no packets are shown the sender has not sent any weather packets the latest 10 day(s).
| Time | Temp. | Humidity | Pressure | Rain* | Wind** | Luminosity | Snow |
|---|---|---|---|---|---|---|---|
| 1777929904 | 25° C | 81% | 1011.2 hPa | 0 mm | - | 0 W/m² | - |
| 1777926304 | 25° C | 83% | 1011.8 hPa | 0 mm | - | 0 W/m² | - |
| 1777925104 | 25° C | 82% | 1010.6 hPa | 0 mm | - | 0 W/m² | - |
| 1777914003 | 24.44° C | 88% | 1014.9 hPa | 1.52 mm | - | 1277 W/m² | - |
| 1777913704 | 25° C | 86% | 1014.5 hPa | 1.52 mm | - | 1271 W/m² | - |
| 1777911904 | 25° C | 85% | 1012.8 hPa | 0 mm | - | 1221 W/m² | - |
| 1777910704 | 24.44° C | 88% | 1014.2 hPa | 0 mm | - | 1172 W/m² | - |
| 1777907704 | 25.56° C | 83% | 1012.5 hPa | 0 mm | - | 998 W/m² | - |
| 1777905904 | 25° C | 89% | 1014.4 hPa | 0 mm | - | 868 W/m² | - |
| 1777903503 | 23.89° C | 94% | 1015.6 hPa | 0 mm | - | 676 W/m² | - |
| 1777900504 | 23.33° C | 98% | 1014.8 hPa | 0 mm | - | 431 W/m² | - |
| 1777899605 | 23.89° C | 99% | 1015 hPa | 0 mm | - | 360 W/m² | - |
| 1777899304 | 23.89° C | 99% | 1015 hPa | 0 mm | - | 337 W/m² | - |
| 1777898704 | 23.33° C | 99% | 1014.9 hPa | 0 mm | - | 292 W/m² | - |
| 1777893604 | 22.78° C | 99% | 1014.4 hPa | 0 mm | - | 41 W/m² | - |
| 1777892704 | 22.78° C | 99% | 1014.4 hPa | 0 mm | - | 13 W/m² | - |
| 1777890604 | 22.78° C | 98% | 1014.3 hPa | 0 mm | - | 0 W/m² | - |
| 1777890304 | 22.78° C | 98% | 1014.4 hPa | 0 mm | - | 0 W/m² | - |
| 1777889404 | 23.33° C | 98% | 1014.3 hPa | 0 mm | - | 0 W/m² | - |
| 1777888804 | 23.33° C | 98% | 1014 hPa | 0 mm | - | 0 W/m² | - |
| 1777888504 | 23.33° C | 98% | 1013.9 hPa | 0 mm | - | 0 W/m² | - |
| 1777886104 | 23.33° C | 98% | 1013.6 hPa | 0 mm | - | 0 W/m² | - |
| 1777885804 | 23.33° C | 98% | 1013.6 hPa | 0 mm | - | 0 W/m² | - |
| 1777884904 | 23.33° C | 98% | 1013.7 hPa | 0 mm | - | 0 W/m² | - |
| 1777869604 | 23.89° C | 95% | 1015 hPa | 0 mm | - | 0 W/m² | - |
* Rain latest hour (hover to see other rain measurements)
** Current wind speed in m/s (hover to see current wind gust speed)